Pagrindinis puslapis
METAR-TAF:

METAR-TAF

Oro uostai :

Sälen Trysil, Švedija

platuma: 61-09-32N, ilguma: 12-50-24E, Aukštis: 490 m

Dabartinis oras

Ataskaita buvo paskelbta 1 valandą ir 23 minutes, ne 02:50 UTC
Vėjas 5 kt iš Rytų/Šiaurės Rytų
Temperatūra 9°C
Drėgmė 87%
Slėgis 1013 hPa
Matomumas 10 km arba daugiau

METAR: ESKS 250250Z AUTO 06005KT 9999 BKN070/// 09/07 Q1013

Laikas: 06:13 (04:13 UTC)


TAF: trūkstamas

Orai ataskaitas ir orų prognozės (METAR, TAF).

turimą stotys yra geltonos ir raudonos taškus žemėlapyje.

Perkelti pele per norėdami pamatyti stoties vardą.

Tada spustelėkite, norėdami matyti oro stebėjimo ir prognozės.

Norėdami pakeisti žemėlapį: spustelėkite ant žalios mygtukų su juodo kryžiaus žemyn,; žalią mygtuką su brūkšneliu, jei norite nutolinti; arba žalių rodyklių gretimoms žemėlapius.


METAR-TAF: